Time;durP1;ratioP1;P1;durP2;ratioP2;P2;SDS_P1;SDS_P2;PMS_P1;PMS_P2;Temp;Humidity;BMP_temperature;BMP_pressure;BME280_temperature;BME280_humidity;BME280_pressure;Samples;Min_cycle;Max_cycle;Signal;HPM_P1;HPM_P2
2023/09/19 00:00:57;;;;;;;8.63;5.70;;;;;;;18.19;83.54;95247.84;5017587;28;20494;-78
2023/09/19 00:03:24;;;;;;;5.70;5.20;;;;;;;18.07;84.15;95243.91;5052091;28;20457;-79
2023/09/19 00:05:52;;;;;;;7.10;6.10;;;;;;;18.17;83.95;95247.19;5052141;28;20449;-80
2023/09/19 00:08:23;;;;;;;6.27;5.13;;;;;;;18.19;83.96;95252.34;5052107;28;20459;-79
2023/09/19 00:10:50;;;;;;;6.60;5.90;;;;;;;18.19;83.99;95249.69;5033100;28;20444;-79
2023/09/19 00:13:16;;;;;;;7.60;6.13;;;;;;;18.15;83.87;95253.69;5052055;28;20440;-79
2023/09/19 00:15:48;;;;;;;12.80;5.30;;;;;;;18.20;84.15;95254.00;5052188;28;20471;-79
2023/09/19 00:18:18;;;;;;;7.43;5.40;;;;;;;18.24;83.75;95250.03;5052093;28;20437;-79
2023/09/19 00:20:47;;;;;;;10.83;7.13;;;;;;;18.27;83.89;95249.69;5051747;28;20530;-78
2023/09/19 00:23:15;;;;;;;6.40;5.00;;;;;;;18.32;83.73;95249.19;5052075;28;20455;-79
2023/09/19 00:25:42;;;;;;;8.00;6.10;;;;;;;18.25;83.91;95246.38;5052141;28;20442;-79
2023/09/19 00:28:09;;;;;;;7.80;5.90;;;;;;;18.11;84.42;95242.56;5016940;28;20440;-79
2023/09/19 00:30:38;;;;;;;5.50;5.00;;;;;;;18.06;84.45;95244.06;5051899;28;20482;-79
2023/09/19 00:33:07;;;;;;;7.30;6.10;;;;;;;18.07;84.44;95238.59;5051865;28;20441;-79
2023/09/19 00:35:34;;;;;;;7.83;6.53;;;;;;;18.05;84.56;95232.63;5052177;28;20454;-79
2023/09/19 00:38:01;;;;;;;10.57;5.83;;;;;;;18.02;84.71;95240.09;5052208;28;20858;-78
2023/09/19 00:40:30;;;;;;;6.00;5.50;;;;;;;18.01;85.01;95247.22;5051351;28;20997;-79
2023/09/19 00:42:59;;;;;;;6.97;5.97;;;;;;;18.01;85.00;95235.78;5052139;28;20441;-79
2023/09/19 00:45:28;;;;;;;6.77;5.20;;;;;;;17.99;85.45;95237.78;5051422;28;20442;-79
2023/09/19 00:47:56;;;;;;;18.50;6.40;;;;;;;17.88;85.75;95229.13;5051917;28;20967;-79
2023/09/19 00:50:26;;;;;;;9.17;5.40;;;;;;;17.93;85.77;95232.13;5051377;28;20448;-79
2023/09/19 00:52:57;;;;;;;6.97;6.10;;;;;;;17.92;85.81;95232.28;5016262;28;20939;-79
2023/09/19 00:55:25;;;;;;;7.57;6.47;;;;;;;17.55;87.81;95224.78;5051380;28;20442;-79
2023/09/19 00:57:54;;;;;;;8.03;5.93;;;;;;;17.19;89.37;95225.06;5051689;28;20444;-79
2023/09/19 01:00:21;;;;;;;7.40;6.63;;;;;;;17.16;89.80;95224.56;5051410;28;20481;-79
2023/09/19 01:02:49;;;;;;;9.50;5.97;;;;;;;17.17;90.51;95226.22;5051635;28;20451;-79
2023/09/19 01:05:15;;;;;;;8.37;6.50;;;;;;;17.24;90.28;95233.34;5051222;28;20458;-79
2023/09/19 01:07:44;;;;;;;6.93;5.93;;;;;;;17.32;89.90;95220.09;5055022;28;20455;-79
2023/09/19 01:10:15;;;;;;;7.90;5.70;;;;;;;17.33;89.86;95221.75;5055318;28;20451;-79
2023/09/19 01:12:55;;;;;;;8.57;6.53;;;;;;;17.41;89.80;95226.25;5055456;28;20617;-78
2023/09/19 01:15:34;;;;;;;8.20;6.17;;;;;;;17.39;89.26;95219.47;5055774;28;20857;-79
2023/09/19 01:18:09;;;;;;;9.93;6.40;;;;;;;17.43;89.29;95220.78;5055030;28;20849;-79
2023/09/19 01:20:41;;;;;;;6.57;5.90;;;;;;;17.38;89.55;95228.41;5036378;28;20522;-79
2023/09/19 01:23:18;;;;;;;8.17;5.30;;;;;;;17.38;89.99;95226.59;5054771;28;20475;-79
2023/09/19 01:26:08;;;;;;;7.27;6.27;;;;;;;17.39;90.05;95222.94;5054697;28;20452;-78
2023/09/19 01:28:55;;;;;;;6.53;5.90;;;;;;;17.43;89.74;95220.78;5055314;28;20450;-79
2023/09/19 01:31:25;;;;;;;7.53;6.00;;;;;;;17.38;90.02;95220.47;5057666;28;21115;-79
2023/09/19 01:34:00;;;;;;;7.80;6.73;;;;;;;17.34;90.18;95219.94;5020233;28;20479;-79
2023/09/19 01:36:34;;;;;;;8.27;6.80;;;;;;;17.36;89.76;95219.78;5054594;28;20441;-79
2023/09/19 01:39:05;;;;;;;7.00;6.33;;;;;;;17.32;90.29;95225.41;5054617;28;20436;-79
2023/09/19 01:41:45;;;;;;;9.17;7.00;;;;;;;17.43;89.77;95220.78;5054661;28;20524;-79
2023/09/19 01:44:24;;;;;;;9.73;5.43;;;;;;;17.42;89.92;95219.13;5054708;28;20438;-79
2023/09/19 01:46:58;;;;;;;10.30;7.43;;;;;;;17.43;89.75;95221.63;5054650;28;20450;-79
2023/09/19 01:49:34;;;;;;;10.03;5.73;;;;;;;17.37;90.52;95216.97;5019125;28;20436;-78
2023/09/19 01:52:07;;;;;;;9.83;6.67;;;;;;;17.13;91.11;95216.91;5054398;28;20442;-79
2023/09/19 01:54:41;;;;;;;7.87;6.20;;;;;;;16.64;93.51;95209.59;5054185;28;20891;-78
2023/09/19 01:57:17;;;;;;;8.00;6.73;;;;;;;16.57;93.85;95213.88;5054188;28;20437;-78
2023/09/19 02:00:06;;;;;;;8.10;7.40;;;;;;;16.30;95.21;95212.25;5054111;28;20444;-79
2023/09/19 02:02:35;;;;;;;6.60;6.00;;;;;;;16.27;96.29;95215.22;5054449;28;20446;-79
2023/09/19 02:05:03;;;;;;;8.10;7.30;;;;;;;16.24;96.91;95222.63;5019265;28;20495;-79
2023/09/19 02:07:31;;;;;;;8.07;6.20;;;;;;;16.34;96.26;95221.53;5054575;28;20445;-79
2023/09/19 02:09:58;;;;;;;6.50;5.90;;;;;;;16.47;96.02;95225.56;5054478;28;20444;-79
2023/09/19 02:12:25;;;;;;;10.03;6.47;;;;;;;16.57;95.39;95232.41;5054524;28;20497;-79
2023/09/19 02:14:52;;;;;;;7.00;6.30;;;;;;;16.66;95.39;95230.66;5054430;28;20446;-79
2023/09/19 02:17:19;;;;;;;8.47;6.10;;;;;;;16.73;94.90;95236.97;5053438;28;20437;-79
2023/09/19 02:19:47;;;;;;;7.83;6.87;;;;;;;16.79;94.27;95225.78;5054070;28;21023;-79
2023/09/19 02:22:16;;;;;;;6.87;6.17;;;;;;;16.90;93.93;95229.94;5054233;28;20438;-79
2023/09/19 02:24:42;;;;;;;11.03;6.53;;;;;;;17.03;93.73;95227.66;5054062;28;20525;-79
2023/09/19 02:27:12;;;;;;;9.53;6.33;;;;;;;17.12;93.02;95228.53;5053849;28;20778;-79
2023/09/19 02:29:39;;;;;;;7.17;6.47;;;;;;;17.15;92.52;95234.31;5054378;28;20439;-79
2023/09/19 02:32:06;;;;;;;9.37;5.63;;;;;;;17.18;92.03;95222.56;5053862;28;20443;-79
2023/09/19 02:34:36;;;;;;;7.87;6.07;;;;;;;17.21;91.82;95227.53;5053870;28;20456;-79
2023/09/19 02:37:04;;;;;;;6.87;6.20;;;;;;;17.18;91.42;95217.25;5053770;28;20836;-79
2023/09/19 02:39:31;;;;;;;8.20;6.40;;;;;;;17.06;91.55;95208.78;5018875;28;20767;-79
2023/09/19 02:41:59;;;;;;;8.20;6.90;;;;;;;17.00;91.89;95210.25;5053616;28;20576;-79
2023/09/19 02:44:27;;;;;;;9.10;6.50;;;;;;;16.84;92.68;95206.72;5053270;28;20534;-79
2023/09/19 02:46:54;;;;;;;9.50;7.07;;;;;;;16.76;93.33;95201.38;5054080;28;20450;-78
2023/09/19 02:49:20;;;;;;;7.20;6.47;;;;;;;16.49;94.46;95207.72;5053679;28;20489;-79
2023/09/19 02:51:48;;;;;;;8.43;7.27;;;;;;;16.39;95.28;95189.28;5053468;28;20533;-79
2023/09/19 02:54:17;;;;;;;8.67;6.73;;;;;;;16.31;95.27;95197.19;5053506;28;20525;-79
2023/09/19 02:56:44;;;;;;;7.77;7.07;;;;;;;16.02;96.75;95195.69;5018603;28;20445;-79
2023/09/19 02:59:11;;;;;;;8.53;7.67;;;;;;;16.00;97.10;95191.53;5053400;28;20533;-79
2023/09/19 03:01:38;;;;;;;12.53;6.67;;;;;;;16.06;97.00;95193.56;5053210;28;20576;-79
2023/09/19 03:04:11;;;;;;;9.37;5.67;;;;;;;16.13;97.43;95191.94;5053238;28;20964;-79
2023/09/19 03:06:38;;;;;;;8.10;7.40;;;;;;;16.14;97.19;95182.19;5053131;28;20442;-79
2023/09/19 03:09:13;;;;;;;9.93;8.20;;;;;;;16.23;97.08;95183.91;5053199;28;20815;-79
2023/09/19 03:11:42;;;;;;;12.87;6.90;;;;;;;16.26;96.56;95179.13;5019945;28;20475;-79
2023/09/19 03:14:09;;;;;;;8.73;7.70;;;;;;;16.23;96.14;95170.66;5053120;28;20527;-79
2023/09/19 03:16:37;;;;;;;14.23;8.00;;;;;;;16.32;95.90;95177.66;5052700;28;20453;-79
2023/09/19 03:19:05;;;;;;;9.40;7.40;;;;;;;16.32;95.94;95177.66;5018053;28;20951;-79
2023/09/19 03:21:31;;;;;;;8.10;7.13;;;;;;;16.35;95.76;95178.16;5052871;28;20581;-79
2023/09/19 03:23:58;;;;;;;7.90;7.10;;;;;;;16.33;95.81;95176.66;5017733;28;20457;-79
2023/09/19 03:26:26;;;;;;;10.03;7.10;;;;;;;16.34;96.37;95183.63;5052559;28;20527;-79
2023/09/19 03:28:54;;;;;;;10.00;7.80;;;;;;;16.41;96.00;95177.53;5052389;28;20448;-79
2023/09/19 03:31:21;;;;;;;10.73;8.17;;;;;;;16.48;95.54;95183.03;5052876;28;20444;-80
2023/09/19 03:33:48;;;;;;;11.40;7.43;;;;;;;16.52;95.74;95175.59;5017706;28;20531;-79
2023/09/19 03:36:15;;;;;;;8.20;7.40;;;;;;;16.48;95.29;95177.75;5052564;28;20449;-79
2023/09/19 03:38:42;;;;;;;14.17;8.30;;;;;;;16.41;95.43;95182.81;5052446;28;20445;-79
2023/09/19 03:41:09;;;;;;;15.30;8.70;;;;;;;16.26;95.55;95179.13;5052448;28;20585;-79
2023/09/19 03:43:36;;;;;;;9.33;7.43;;;;;;;16.24;95.33;95177.63;5052638;28;20436;-79
2023/09/19 03:46:05;;;;;;;15.60;8.43;;;;;;;16.03;96.25;95178.81;5052567;28;20452;-79
2023/09/19 03:48:31;;;;;;;8.47;7.50;;;;;;;15.89;97.05;95176.72;5052575;28;20487;-79
2023/09/19 03:50:58;;;;;;;16.03;9.03;;;;;;;15.87;97.82;95183.16;5052389;28;20456;-79
2023/09/19 03:53:25;;;;;;;9.87;7.77;;;;;;;15.94;98.21;95184.22;5017348;28;20436;-79
2023/09/19 04:11:34;;;;;;;13.50;9.00;;;;;;;16.36;96.14;95202.84;5132527;27;20543;-83
2023/09/19 04:14:05;;;;;;;16.47;9.40;;;;;;;16.35;95.84;95203.81;5134867;27;20457;-83
2023/09/19 04:16:31;;;;;;;10.90;9.80;;;;;;;16.31;95.81;95199.84;5132572;28;20427;-82
2023/09/19 04:18:58;;;;;;;10.70;8.67;;;;;;;16.29;95.52;95204.47;5131311;27;20455;-84
2023/09/19 04:21:25;;;;;;;10.37;8.17;;;;;;;16.28;96.10;95211.56;5131949;27;20438;-84
2023/09/19 04:23:52;;;;;;;9.40;8.37;;;;;;;16.29;96.38;95212.41;5132612;27;20441;-84
2023/09/19 04:26:19;;;;;;;10.83;9.60;;;;;;;16.39;95.93;95219.25;5132133;27;20452;-83
2023/09/19 04:28:47;;;;;;;9.80;8.47;;;;;;;16.47;96.00;95215.78;5096517;28;20436;-83
2023/09/19 04:31:14;;;;;;;14.13;8.40;;;;;;;16.58;95.34;95220.84;5131989;27;20519;-84
2023/09/19 04:33:40;;;;;;;8.77;7.77;;;;;;;16.61;95.29;95198.47;5131870;27;20449;-83
2023/09/19 04:36:08;;;;;;;14.63;8.80;;;;;;;16.78;95.42;95216.16;5131537;27;20495;-83
2023/09/19 04:38:34;;;;;;;13.23;8.20;;;;;;;16.86;94.65;95215.34;5132035;27;20472;-83
2023/09/19 04:41:01;;;;;;;14.57;8.03;;;;;;;16.96;94.04;95205.44;5135999;27;20887;-83
2023/09/19 04:43:29;;;;;;;10.90;8.43;;;;;;;17.03;93.61;95209.09;5134795;27;20440;-82
2023/09/19 04:46:00;;;;;;;16.13;8.30;;;;;;;17.10;92.67;95196.88;5098321;28;20434;-83
2023/09/19 04:48:28;;;;;;;18.47;7.80;;;;;;;17.18;92.18;95201.34;5136218;27;20455;-83
2023/09/19 04:50:55;;;;;;;19.07;8.20;;;;;;;17.21;91.26;95207.16;5134635;27;21022;-83
2023/09/19 04:53:22;;;;;;;12.17;8.20;;;;;;;17.22;90.96;95205.34;5132077;27;20446;-83
2023/09/19 04:55:52;;;;;;;9.60;7.20;;;;;;;17.22;91.11;95208.81;5132245;27;20440;-83
2023/09/19 04:58:20;;;;;;;9.30;7.67;;;;;;;17.12;92.33;95205.47;5131677;27;20448;-83
2023/09/19 05:00:46;;;;;;;13.93;7.70;;;;;;;17.14;92.39;95203.50;5132182;27;20998;-83
2023/09/19 05:03:15;;;;;;;8.90;8.00;;;;;;;17.25;92.53;95197.03;5132350;27;20450;-82
2023/09/19 05:05:42;;;;;;;8.90;7.00;;;;;;;17.23;92.75;95199.84;5133079;27;20894;-82
2023/09/19 05:08:09;;;;;;;15.17;7.30;;;;;;;17.28;92.63;95200.19;5133794;28;20848;-82
2023/09/19 05:10:37;;;;;;;8.23;7.33;;;;;;;17.10;93.87;95193.38;5131571;27;20466;-82
2023/09/19 05:13:04;;;;;;;17.07;9.93;;;;;;;16.81;95.39;95177.91;5121321;27;20449;-82
2023/09/19 05:15:31;;;;;;;15.10;8.30;;;;;;;16.94;96.02;95180.91;5102792;28;20436;-83
2023/09/19 05:17:58;;;;;;;10.17;8.23;;;;;;;17.00;96.17;95178.44;5122051;28;20802;-83
2023/09/19 05:20:32;;;;;;;16.43;9.30;;;;;;;17.20;95.10;95186.94;5097721;28;20475;-83
2023/09/19 05:23:01;;;;;;;16.97;9.13;;;;;;;17.62;94.27;95191.25;5116159;28;20809;-83
2023/09/19 05:25:29;;;;;;;15.97;9.27;;;;;;;18.08;92.01;95191.63;5116036;28;20440;-82
2023/09/19 05:27:57;;;;;;;14.43;8.50;;;;;;;18.34;89.35;95196.72;5115940;28;20438;-83
2023/09/19 05:30:24;;;;;;;12.93;9.30;;;;;;;18.69;86.63;95192.81;5115991;28;20453;-83
2023/09/19 05:32:51;;;;;;;14.27;7.97;;;;;;;19.03;84.80;95201.28;5079862;28;20936;-83
2023/09/19 05:35:18;;;;;;;11.13;6.97;;;;;;;19.26;83.54;95187.19;5115970;28;20466;-83
2023/09/19 05:37:46;;;;;;;8.40;7.60;;;;;;;19.62;81.39;95190.94;5115828;28;20449;-82
2023/09/19 05:40:15;;;;;;;9.97;7.00;;;;;;;19.79;79.58;95191.66;5115355;28;20519;-82
2023/09/19 05:42:43;;;;;;;7.50;6.80;;;;;;;20.05;79.83;95191.28;5115771;28;20446;-83
2023/09/19 05:45:12;;;;;;;9.27;6.73;;;;;;;20.42;78.83;95199.25;5097068;28;20471;-83
2023/09/19 05:47:38;;;;;;;11.30;6.00;;;;;;;20.79;76.50;95189.50;5115592;28;20441;-83
2023/09/19 05:50:09;;;;;;;12.80;6.23;;;;;;;21.12;75.23;95189.94;5115295;28;20448;-83
2023/09/19 05:52:37;;;;;;;6.33;5.57;;;;;;;21.33;73.13;95191.81;5115327;28;20943;-83
2023/09/19 05:55:07;;;;;;;8.60;5.77;;;;;;;21.47;72.56;95203.47;5115216;27;20924;-83
2023/09/19 05:57:34;;;;;;;11.87;6.70;;;;;;;21.63;72.46;95185.34;5115336;28;20450;-83
2023/09/19 06:00:01;;;;;;;11.50;6.47;;;;;;;21.70;71.21;95185.44;5115433;28;20491;-83
2023/09/19 06:02:29;;;;;;;5.63;5.13;;;;;;;21.72;71.58;95183.41;5115348;28;20445;-83
2023/09/19 06:04:56;;;;;;;8.83;6.73;;;;;;;21.72;71.86;95180.72;5115089;28;20579;-83
2023/09/19 06:07:25;;;;;;;11.80;6.80;;;;;;;21.74;71.05;95177.88;5115009;28;20941;-83
2023/09/19 06:09:53;;;;;;;7.30;6.60;;;;;;;21.74;71.10;95172.53;5115003;28;20486;-82
2023/09/19 06:12:21;;;;;;;7.63;6.90;;;;;;;21.78;71.20;95163.94;5114927;28;20440;-83
2023/09/19 06:14:49;;;;;;;8.63;7.70;;;;;;;21.61;70.22;95165.19;5114719;27;20453;-83
2023/09/19 06:17:17;;;;;;;8.80;7.63;;;;;;;21.44;71.08;95175.31;5114626;28;20438;-83
2023/09/19 06:19:47;;;;;;;9.37;7.00;;;;;;;21.39;72.60;95168.88;5114888;28;20482;-83
2023/09/19 06:22:17;;;;;;;9.50;7.50;;;;;;;21.27;72.23;95165.88;5114261;28;20443;-83
2023/09/19 06:24:44;;;;;;;15.70;8.90;;;;;;;21.10;73.20;95161.75;5114466;28;20453;-83
2023/09/19 06:27:11;;;;;;;9.10;6.73;;;;;;;20.91;74.35;95164.00;5114498;28;20937;-83
2023/09/19 06:29:39;;;;;;;9.40;7.57;;;;;;;20.91;75.72;95161.34;5078810;28;20437;-83
2023/09/19 06:32:09;;;;;;;8.27;6.30;;;;;;;21.01;76.21;95161.88;5114123;28;20445;-83
2023/09/19 06:34:36;;;;;;;6.83;6.13;;;;;;;20.97;74.49;95165.09;5114511;28;20444;-83
2023/09/19 06:37:03;;;;;;;9.97;7.13;;;;;;;21.03;74.94;95159.84;5114512;28;20445;-83
2023/09/19 06:39:31;;;;;;;11.27;6.97;;;;;;;20.76;75.74;95154.38;5114301;28;20965;-83
2023/09/19 06:41:58;;;;;;;8.70;6.90;;;;;;;20.75;77.06;95156.22;5114070;27;20528;-83
2023/09/19 06:44:25;;;;;;;9.53;6.17;;;;;;;20.85;76.22;95156.75;5114429;28;20460;-83
2023/09/19 06:46:54;;;;;;;8.87;6.30;;;;;;;20.79;75.88;95164.66;5114263;27;20883;-83
2023/09/19 06:49:21;;;;;;;6.30;5.70;;;;;;;20.66;76.05;95166.16;5114234;28;20439;-83
2023/09/19 06:51:49;;;;;;;9.70;5.70;;;;;;;20.52;75.57;95158.97;5113734;28;20454;-82
2023/09/19 06:54:17;;;;;;;6.23;5.30;;;;;;;20.44;76.50;95177.75;5113835;28;20444;-83
2023/09/19 06:56:44;;;;;;;8.77;5.73;;;;;;;20.37;77.32;95168.81;5113933;28;20441;-82
2023/09/19 06:59:14;;;;;;;6.30;5.73;;;;;;;20.24;78.41;95174.78;5113486;28;20436;-82
2023/09/19 07:01:41;;;;;;;7.57;6.60;;;;;;;20.37;78.32;95169.63;5113737;28;20488;-83
2023/09/19 07:04:09;;;;;;;10.03;5.87;;;;;;;20.42;78.23;95172.59;5113690;28;20440;-82
2023/09/19 07:06:36;;;;;;;12.07;6.40;;;;;;;20.42;77.96;95175.25;5094589;28;20454;-83
2023/09/19 07:09:04;;;;;;;13.00;6.70;;;;;;;20.47;78.43;95173.88;5077629;28;20913;-82
2023/09/19 07:11:31;;;;;;;11.33;6.57;;;;;;;20.56;78.44;95173.63;5113500;28;20436;-83
2023/09/19 07:13:59;;;;;;;11.10;6.03;;;;;;;20.63;78.43;95177.19;5113883;28;20445;-83
2023/09/19 07:16:29;;;;;;;12.93;7.33;;;;;;;20.69;76.59;95187.13;5113530;28;20441;-83
2023/09/19 07:18:56;;;;;;;7.03;6.43;;;;;;;20.76;75.59;95189.03;5113480;28;20566;-82
2023/09/19 07:21:25;;;;;;;8.80;5.87;;;;;;;20.84;76.15;95180.97;5113236;28;20559;-83
2023/09/19 07:23:52;;;;;;;18.00;7.67;;;;;;;20.91;76.21;95182.69;5113180;28;20490;-83
2023/09/19 07:26:19;;;;;;;7.73;6.47;;;;;;;20.86;75.66;95174.44;5113389;28;20503;-83
2023/09/19 07:28:45;;;;;;;7.43;5.50;;;;;;;20.82;75.93;95175.81;5113232;28;20436;-83
2023/09/19 07:31:14;;;;;;;10.30;5.40;;;;;;;20.70;76.09;95174.63;5094374;28;20437;-82
2023/09/19 07:33:41;;;;;;;8.07;6.60;;;;;;;20.67;76.92;95178.47;5113023;28;20474;-82
2023/09/19 07:36:13;;;;;;;7.47;6.03;;;;;;;20.67;77.32;95174.97;5113480;28;20480;-83
2023/09/19 07:38:41;;;;;;;7.27;6.33;;;;;;;20.70;76.72;95177.28;5113061;28;20511;-82
2023/09/19 07:41:08;;;;;;;6.00;5.50;;;;;;;20.76;76.45;95178.38;5112863;28;20986;-83
2023/09/19 07:43:35;;;;;;;12.37;5.50;;;;;;;20.71;77.01;95181.59;5113155;28;20445;-83
2023/09/19 07:46:06;;;;;;;13.70;6.93;;;;;;;20.73;76.88;95179.56;5113122;28;20437;-83
2023/09/19 07:48:33;;;;;;;9.37;6.00;;;;;;;20.68;77.56;95177.47;5113342;28;20860;-82
2023/09/19 07:51:04;;;;;;;6.37;5.87;;;;;;;20.78;77.08;95179.00;5112960;28;21018;-83
2023/09/19 07:53:34;;;;;;;15.70;6.07;;;;;;;20.76;75.83;95181.88;5113077;28;20948;-83
2023/09/19 07:56:06;;;;;;;11.73;5.60;;;;;;;20.90;75.32;95186.38;5113000;28;20445;-83
2023/09/19 07:58:33;;;;;;;7.30;6.17;;;;;;;20.97;75.86;95179.28;5094534;28;20438;-83
2023/09/19 08:01:04;;;;;;;6.77;5.83;;;;;;;21.01;76.01;95185.06;5113311;28;20551;-82
2023/09/19 08:03:31;;;;;;;13.33;8.03;;;;;;;21.08;75.74;95177.13;5112978;28;20468;-82
2023/09/19 08:05:59;;;;;;;9.17;5.70;;;;;;;21.14;74.30;95182.56;5112914;28;20477;-83
2023/09/19 08:08:26;;;;;;;8.10;5.67;;;;;;;21.22;73.63;95184.28;5113321;28;20453;-83
2023/09/19 08:10:55;;;;;;;8.03;5.90;;;;;;;21.25;72.51;95186.59;5113315;28;20476;-83
2023/09/19 08:13:24;;;;;;;10.90;6.60;;;;;;;21.37;72.69;95187.75;5112924;28;20471;-82
2023/09/19 08:15:52;;;;;;;16.27;6.63;;;;;;;21.52;73.53;95185.88;5113045;28;20439;-83
2023/09/19 08:18:21;;;;;;;6.80;5.90;;;;;;;21.58;72.20;95181.59;5112719;28;20473;-83
2023/09/19 08:20:50;;;;;;;8.77;7.07;;;;;;;21.52;70.58;95169.03;5094189;28;20561;-83
2023/09/19 08:23:19;;;;;;;12.10;6.50;;;;;;;21.62;72.06;95167.69;5112684;28;20450;-83
2023/09/19 08:25:46;;;;;;;10.93;5.57;;;;;;;21.72;71.57;95166.56;5112772;28;20477;-83
2023/09/19 08:28:18;;;;;;;8.53;6.07;;;;;;;21.84;72.32;95167.66;5112845;28;20437;-83
2023/09/19 08:30:47;;;;;;;7.97;6.13;;;;;;;21.58;71.06;95163.75;5112597;28;20445;-82
2023/09/19 08:33:15;;;;;;;7.27;6.60;;;;;;;21.61;71.46;95157.19;5112834;28;20433;-82
2023/09/19 08:35:43;;;;;;;8.20;6.17;;;;;;;21.44;71.24;95161.97;5113120;28;20446;-82
2023/09/19 08:38:11;;;;;;;8.53;5.20;;;;;;;21.27;72.67;95147.19;5076880;28;20438;-83
2023/09/19 08:40:39;;;;;;;5.80;5.20;;;;;;;21.47;72.56;95156.25;5113170;28;20492;-82
2023/09/19 08:43:06;;;;;;;9.07;6.10;;;;;;;21.55;72.67;95158.78;5112874;28;20446;-82
2023/09/19 08:45:33;;;;;;;5.47;5.00;;;;;;;21.76;73.01;95159.81;5112432;28;20461;-83
2023/09/19 08:48:18;;;;;;;10.00;6.17;;;;;;;21.95;72.67;95148.44;5116365;28;20444;-82
2023/09/19 08:50:52;;;;;;;8.83;6.77;;;;;;;22.15;72.35;95156.63;5116358;28;20449;-83
2023/09/19 08:53:27;;;;;;;8.53;5.53;;;;;;;22.33;71.68;95148.97;5116518;27;20440;-83
2023/09/19 08:55:56;;;;;;;9.90;7.23;;;;;;;22.50;71.95;95154.81;5116415;28;20445;-83
2023/09/19 08:58:29;;;;;;;9.23;6.07;;;;;;;22.64;70.90;95153.03;5116679;28;20924;-82
2023/09/19 09:00:57;;;;;;;9.20;5.80;;;;;;;22.72;71.01;95156.38;5116143;28;20532;-82
2023/09/19 09:03:26;;;;;;;6.77;6.07;;;;;;;22.75;69.63;95150.63;5116317;28;20448;-82
2023/09/19 09:05:53;;;;;;;6.37;5.63;;;;;;;22.70;69.37;95147.72;5116151;28;20441;-83
2023/09/19 09:08:21;;;;;;;12.33;6.97;;;;;;;22.73;70.84;95146.50;5116100;28;20951;-82
2023/09/19 09:10:48;;;;;;;7.90;7.10;;;;;;;22.61;70.72;95138.22;5115946;28;20544;-82
2023/09/19 09:13:15;;;;;;;10.70;7.03;;;;;;;22.58;70.10;95130.59;5116317;28;20804;-83
2023/09/19 09:15:44;;;;;;;7.83;6.27;;;;;;;22.44;70.48;95137.69;5115894;28;20945;-83
2023/09/19 09:18:11;;;;;;;5.83;5.30;;;;;;;22.50;70.31;95126.22;5116288;28;20918;-83
2023/09/19 09:20:40;;;;;;;6.43;5.90;;;;;;;22.59;70.87;95132.25;5115675;28;20843;-83
2023/09/19 09:23:06;;;;;;;6.13;5.60;;;;;;;22.54;68.87;95126.63;5116183;28;20441;-82
2023/09/19 09:25:54;;;;;;;9.67;5.93;;;;;;;22.52;69.61;95123.34;5115955;28;20449;-83
2023/09/19 09:28:22;;;;;;;12.13;7.57;;;;;;;22.54;69.91;95122.13;5115983;28;20441;-83
2023/09/19 09:30:50;;;;;;;19.77;10.93;;;;;;;22.75;70.52;95120.38;5115682;28;20923;-83
2023/09/19 09:33:18;;;;;;;10.60;8.00;;;;;;;22.94;69.84;95116.16;5115635;28;20435;-83
2023/09/19 09:35:56;;;;;;;15.73;11.10;;;;;;;23.11;69.37;95120.09;5115969;28;20453;-83
2023/09/19 09:38:31;;;;;;;8.80;6.10;;;;;;;23.23;67.78;95118.50;5115565;28;20924;-83
2023/09/19 09:41:06;;;;;;;9.23;6.60;;;;;;;23.35;67.50;95114.19;5115702;28;20489;-83
2023/09/19 09:43:38;;;;;;;7.90;6.00;;;;;;;23.34;68.14;95109.88;5115531;28;20446;-82
2023/09/19 09:49:24;;;;;;;9.50;6.00;;;;;;;23.36;66.11;95097.09;5115474;28;20430;-82
2023/09/19 09:52:05;;;;;;;6.60;5.57;;;;;;;23.48;66.34;95106.19;5115412;28;20950;-83
2023/09/19 09:54:36;;;;;;;6.33;5.70;;;;;;;23.57;66.26;95100.66;5115688;28;20450;-83
2023/09/19 09:57:13;;;;;;;6.60;5.50;;;;;;;23.55;65.43;95094.66;5115478;28;20442;-83
2023/09/19 09:59:49;;;;;;;6.53;5.90;;;;;;;23.68;64.34;95097.38;5115474;28;20545;-83
2023/09/19 10:02:22;;;;;;;5.87;5.07;;;;;;;23.63;64.84;95084.59;5115027;28;20486;-82
2023/09/19 10:04:59;;;;;;;11.43;5.93;;;;;;;23.75;65.93;95082.13;5114852;28;20852;-82
2023/09/19 10:07:35;;;;;;;7.17;5.27;;;;;;;24.00;64.88;95080.47;5115501;28;20472;-83
2023/09/19 10:10:13;;;;;;;6.07;5.37;;;;;;;24.19;63.47;95077.94;5115142;28;20470;-81
2023/09/19 10:12:43;;;;;;;7.30;4.80;;;;;;;24.28;63.73;95082.06;5115287;28;20438;-82
2023/09/19 10:15:15;;;;;;;5.93;5.33;;;;;;;24.18;63.86;95085.16;5115129;28;20446;-82
2023/09/19 10:17:44;;;;;;;6.17;5.57;;;;;;;24.02;63.77;95078.41;5114750;28;20534;-82
2023/09/19 10:20:32;;;;;;;7.70;5.67;;;;;;;23.91;64.52;95076.34;5115017;28;20446;-83
2023/09/19 10:23:09;;;;;;;5.93;4.90;;;;;;;23.87;65.52;95069.75;5114711;28;20915;-83
2023/09/19 10:25:38;;;;;;;6.60;6.07;;;;;;;23.87;65.63;95066.25;5114552;28;20447;-82
2023/09/19 10:28:10;;;;;;;15.73;6.30;;;;;;;23.90;65.89;95069.31;5114816;28;20774;-83
2023/09/19 10:30:41;;;;;;;6.57;5.87;;;;;;;23.84;64.92;95067.47;5114595;28;20470;-83
2023/09/19 10:33:09;;;;;;;9.47;5.60;;;;;;;23.70;65.04;95068.50;5114647;28;20446;-83
2023/09/19 10:35:40;;;;;;;6.30;5.70;;;;;;;23.63;63.86;95063.16;5114377;28;20441;-83
2023/09/19 10:38:11;;;;;;;6.73;5.97;;;;;;;23.70;65.07;95057.78;5114747;28;20820;-83
2023/09/19 10:40:43;;;;;;;11.33;5.70;;;;;;;23.75;64.68;95055.34;5114298;28;20473;-83
2023/09/19 10:43:14;;;;;;;6.60;6.07;;;;;;;23.75;64.63;95058.00;5114228;28;20453;-83
2023/09/19 10:45:42;;;;;;;6.53;5.93;;;;;;;23.62;65.60;95049.97;5114273;28;20449;-83
2023/09/19 10:48:09;;;;;;;8.30;6.70;;;;;;;23.78;65.91;95046.88;5114039;28;20489;-83
2023/09/19 10:50:45;;;;;;;9.10;6.37;;;;;;;23.91;66.26;95048.72;5114512;28;20530;-83
2023/09/19 10:53:15;;;;;;;101.87;41.93;;;;;;;24.03;65.21;95047.88;5114272;28;20771;-83
2023/09/19 10:55:43;;;;;;;51.73;25.20;;;;;;;24.12;65.17;95044.97;5113969;28;20447;-83
2023/09/19 10:58:15;;;;;;;12.73;8.03;;;;;;;24.18;64.20;95049.47;5114060;28;20453;-82
2023/09/19 11:00:52;;;;;;;15.00;7.43;;;;;;;24.25;64.19;95047.59;5113918;28;20470;-82
2023/09/19 11:03:23;;;;;;;83.43;34.40;;;;;;;24.31;65.55;95041.44;5114002;28;20457;-83
2023/09/19 11:06:13;;;;;;;37.17;15.57;;;;;;;24.36;63.83;95042.47;5114181;28;20794;-83
2023/09/19 11:09:21;;;;;;;13.93;8.13;;;;;;;24.40;63.82;95032.13;5113064;28;20444;-83
2023/09/19 11:11:57;;;;;;;7.30;6.70;;;;;;;24.41;63.51;95033.78;5070843;28;20452;-83
2023/09/19 11:14:44;;;;;;;6.57;5.97;;;;;;;24.35;63.72;95030.09;5054081;28;20972;-83
2023/09/19 11:17:48;;;;;;;8.03;5.93;;;;;;;24.32;64.03;95027.00;5070910;28;20446;-83
2023/09/19 11:23:25;;;;;;;7.80;6.07;;;;;;;24.48;63.86;95023.84;5030880;28;20501;-82
2023/09/19 11:25:54;;;;;;;7.40;6.10;;;;;;;24.52;64.65;95019.69;5030857;28;20454;-82
2023/09/19 11:28:38;;;;;;;7.17;6.17;;;;;;;24.43;61.67;95015.59;5030781;28;20533;-82
2023/09/19 11:31:43;;;;;;;5.90;5.30;;;;;;;24.51;62.73;95012.66;5031025;28;20453;-82
2023/09/19 11:34:55;;;;;;;8.33;5.93;;;;;;;24.49;61.98;95008.56;5030944;28;20441;-83
2023/09/19 11:38:15;;;;;;;7.27;5.67;;;;;;;24.51;61.78;95007.31;4972077;28;20504;-83
2023/09/19 11:40:55;;;;;;;6.20;5.60;;;;;;;24.63;61.80;94997.56;4971864;28;20457;-83
2023/09/19 11:43:35;;;;;;;6.23;5.60;;;;;;;24.67;62.74;94997.97;4971829;28;20488;-82
2023/09/19 11:46:08;;;;;;;9.43;6.23;;;;;;;24.48;61.61;94991.63;4972271;28;20484;-82
2023/09/19 11:48:44;;;;;;;12.17;6.40;;;;;;;24.44;62.22;94993.09;5003665;28;20443;-82
2023/09/19 11:51:23;;;;;;;9.03;6.03;;;;;;;24.49;62.27;94982.56;5030501;28;20592;-82
2023/09/19 11:53:51;;;;;;;6.30;5.67;;;;;;;24.55;63.88;94968.28;5031034;28;20500;-82
2023/09/19 11:56:20;;;;;;;7.83;6.17;;;;;;;24.65;64.16;94960.59;5030698;28;20454;-82
2023/09/19 11:58:53;;;;;;;12.43;7.47;;;;;;;24.70;61.98;94968.81;5030453;28;20435;-82
2023/09/19 12:01:24;;;;;;;11.13;7.03;;;;;;;24.81;62.67;94961.94;5068615;28;20445;-82
2023/09/19 12:03:54;;;;;;;23.87;15.10;;;;;;;24.90;62.95;94963.34;5070191;28;20544;-82
2023/09/19 12:06:21;;;;;;;7.77;6.97;;;;;;;24.90;61.97;94957.16;5070431;28;20477;-82
2023/09/19 12:08:49;;;;;;;18.90;6.37;;;;;;;24.89;62.42;94966.25;5070170;28;20474;-82